Time;durP1;ratioP1;P1;durP2;ratioP2;P2;SDS_P1;SDS_P2;PMS_P1;PMS_P2;Temp;Humidity;BMP_temperature;BMP_pressure;BME280_temperature;BME280_humidity;BME280_pressure;Samples;Min_cycle;Max_cycle;Signal;HPM_P1;HPM_P2
2021/06/24 00:01:36;;;;;;;14.75;9.40;;;;;;;14.57;100.00;102135.34;5225131;28;20457;-83
2021/06/24 00:04:06;;;;;;;15.85;9.63;;;;;;;14.59;100.00;102143.28;5225014;28;20024;-83
2021/06/24 00:06:37;;;;;;;20.23;10.35;;;;;;;14.56;100.00;102144.47;5226092;28;20464;-83
2021/06/24 00:09:07;;;;;;;18.02;9.65;;;;;;;14.60;100.00;102143.09;5225414;28;20387;-83
2021/06/24 00:11:38;;;;;;;19.45;9.75;;;;;;;14.52;100.00;102142.25;5224911;28;20048;-83
2021/06/24 00:14:08;;;;;;;23.48;9.90;;;;;;;14.50;100.00;102145.91;5225101;28;20507;-83
2021/06/24 00:16:39;;;;;;;18.17;10.07;;;;;;;14.49;100.00;102146.09;5228020;28;20544;-83
2021/06/24 00:19:09;;;;;;;21.48;9.27;;;;;;;14.53;100.00;102160.13;5235870;28;20123;-83
2021/06/24 00:21:40;;;;;;;17.20;9.00;;;;;;;14.52;100.00;102151.19;5229624;28;20387;-83
2021/06/24 00:24:10;;;;;;;21.40;10.10;;;;;;;14.51;100.00;102146.78;5235041;28;20025;-83
2021/06/24 00:26:41;;;;;;;17.52;9.50;;;;;;;14.49;100.00;102144.22;5226298;28;20521;-83
2021/06/24 00:29:11;;;;;;;20.92;9.65;;;;;;;14.50;100.00;102136.97;5238220;28;20025;-83
2021/06/24 00:31:42;;;;;;;14.45;9.40;;;;;;;14.49;100.00;102136.13;5233281;28;20031;-83
2021/06/24 00:34:12;;;;;;;21.30;9.43;;;;;;;14.52;100.00;102136.84;5246719;28;20036;-83
2021/06/24 00:36:43;;;;;;;17.00;9.65;;;;;;;14.51;100.00;102146.78;5247661;28;20538;-83
2021/06/24 00:39:13;;;;;;;17.73;9.18;;;;;;;14.49;100.00;102144.22;5231484;28;20029;-83
2021/06/24 00:41:45;;;;;;;12.73;9.77;;;;;;;14.47;100.00;102142.69;5226899;28;20021;-83
2021/06/24 00:44:15;;;;;;;23.30;9.68;;;;;;;14.42;100.00;102136.91;5225698;28;20033;-83
2021/06/24 00:46:46;;;;;;;18.38;9.82;;;;;;;14.33;100.00;102145.97;5226018;28;20028;-83
2021/06/24 00:49:16;;;;;;;14.32;8.30;;;;;;;14.30;100.00;102143.56;5225916;28;20110;-83
2021/06/24 00:51:47;;;;;;;17.55;10.32;;;;;;;14.22;100.00;102136.28;5226024;28;20017;-83
2021/06/24 00:54:17;;;;;;;17.58;9.55;;;;;;;14.17;100.00;102125.97;5239197;28;20032;-83
2021/06/24 00:56:48;;;;;;;15.55;9.00;;;;;;;14.22;100.00;102128.19;5239026;28;20107;-83
2021/06/24 00:59:18;;;;;;;16.52;9.13;;;;;;;14.19;100.00;102126.63;5226301;28;20037;-83
2021/06/24 01:01:49;;;;;;;14.82;9.25;;;;;;;14.17;100.00;102133.22;5225740;28;20036;-83
2021/06/24 01:04:22;;;;;;;23.10;10.25;;;;;;;14.19;100.00;102123.94;5226130;28;20021;-83
2021/06/24 01:07:06;;;;;;;25.67;10.18;;;;;;;14.18;100.00;102122.25;5227650;28;20395;-83
2021/06/24 01:09:36;;;;;;;25.75;9.45;;;;;;;14.15;100.00;102121.72;5225363;28;20109;-83
2021/06/24 01:12:09;;;;;;;17.98;9.93;;;;;;;14.09;100.00;102107.00;5231699;28;20051;-83
2021/06/24 01:14:39;;;;;;;16.77;10.07;;;;;;;14.06;100.00;102099.25;5233914;28;20028;-83
2021/06/24 01:17:10;;;;;;;19.77;9.25;;;;;;;14.02;100.00;102094.34;5225574;28;20392;-83
2021/06/24 01:19:40;;;;;;;16.58;9.00;;;;;;;13.96;100.00;102087.72;5239265;28;20081;-83
2021/06/24 01:22:12;;;;;;;17.48;9.40;;;;;;;13.96;100.00;102083.16;5225828;28;20100;-83
2021/06/24 01:24:42;;;;;;;16.75;9.43;;;;;;;13.88;100.00;102084.97;5225779;28;20041;-83
2021/06/24 01:27:13;;;;;;;17.50;9.40;;;;;;;13.85;100.00;102080.72;5235226;28;20364;-83
2021/06/24 01:30:04;;;;;;;18.60;9.57;;;;;;;13.77;100.00;102088.75;5211837;28;20025;-83
2021/06/24 01:32:35;;;;;;;22.00;8.98;;;;;;;13.76;100.00;102088.91;5223970;28;20044;-83
2021/06/24 01:35:06;;;;;;;17.73;10.23;;;;;;;13.77;100.00;102088.75;5245642;28;20020;-83
2021/06/24 01:37:36;;;;;;;20.75;8.93;;;;;;;13.85;100.00;102083.41;5230619;28;20040;-83
2021/06/24 01:40:08;;;;;;;18.52;9.10;;;;;;;13.79;100.00;102094.00;5232158;28;20028;-83
2021/06/24 01:42:39;;;;;;;17.27;9.63;;;;;;;13.78;100.00;102089.59;5229548;28;20064;-83
2021/06/24 01:45:17;;;;;;;20.13;10.02;;;;;;;13.78;100.00;102093.13;5226000;28;20061;-83
2021/06/24 01:47:48;;;;;;;21.20;9.38;;;;;;;13.77;100.00;102090.63;5227630;28;20391;-83
2021/06/24 01:50:19;;;;;;;19.15;9.95;;;;;;;13.78;100.00;102090.44;5228606;28;20032;-83
2021/06/24 01:52:50;;;;;;;15.10;9.60;;;;;;;13.79;100.00;102086.75;5229445;28;20020;-83
2021/06/24 01:55:36;;;;;;;21.35;10.45;;;;;;;13.74;100.00;102073.72;5229720;28;20017;-83
2021/06/24 01:58:09;;;;;;;16.85;9.68;;;;;;;13.77;100.00;102072.56;5229068;28;20390;-83
2021/06/24 02:00:43;;;;;;;25.65;10.88;;;;;;;13.69;100.00;102078.75;5242261;28;20025;-83
2021/06/24 02:03:15;;;;;;;23.23;10.20;;;;;;;13.66;100.00;102086.31;5229410;28;20498;-83
2021/06/24 02:05:48;;;;;;;18.35;10.00;;;;;;;13.65;100.00;102080.06;5229315;28;20100;-83
2021/06/24 02:08:24;;;;;;;23.67;10.75;;;;;;;13.66;100.00;102080.94;5230251;28;20395;-83
2021/06/24 02:10:57;;;;;;;16.15;9.95;;;;;;;13.73;100.00;102074.72;5240257;28;20040;-83
2021/06/24 02:13:27;;;;;;;20.45;10.05;;;;;;;13.70;100.00;102077.75;5232598;28;20024;-83
2021/06/24 02:15:58;;;;;;;16.80;10.07;;;;;;;13.71;100.00;102074.06;5249526;28;20024;-83
2021/06/24 02:18:29;;;;;;;15.23;10.57;;;;;;;13.70;100.00;102066.97;5231161;28;20381;-83
2021/06/24 02:21:00;;;;;;;20.13;10.80;;;;;;;13.69;100.00;102073.34;5228816;28;20033;-83
2021/06/24 02:23:30;;;;;;;17.33;10.30;;;;;;;13.70;100.00;102076.88;5241768;28;20021;-83
2021/06/24 02:26:00;;;;;;;17.77;10.35;;;;;;;13.83;100.00;102082.72;5228577;28;20499;-83
2021/06/24 02:28:31;;;;;;;23.10;10.05;;;;;;;13.80;100.00;102071.41;5228652;28;20392;-83
2021/06/24 02:31:02;;;;;;;24.35;10.80;;;;;;;13.73;100.00;102077.44;5240948;28;20025;-83
2021/06/24 02:33:33;;;;;;;17.30;10.50;;;;;;;13.73;100.00;102080.13;5237113;28;20423;-83
2021/06/24 02:36:04;;;;;;;15.85;10.20;;;;;;;13.74;100.00;102073.72;5235304;28;20039;-83
2021/06/24 02:38:34;;;;;;;21.50;9.52;;;;;;;13.79;100.00;102075.94;5243780;28;20028;-83
2021/06/24 02:41:05;;;;;;;15.27;10.07;;;;;;;13.83;100.00;102066.53;5234932;28;20024;-83
2021/06/24 02:43:35;;;;;;;15.25;10.02;;;;;;;13.79;100.00;102067.84;5248544;28;20089;-83
2021/06/24 02:46:06;;;;;;;17.65;10.68;;;;;;;13.72;100.00;102073.03;5243596;28;20696;-83
2021/06/24 02:48:36;;;;;;;17.65;9.98;;;;;;;13.73;100.00;102079.28;5227117;28;20539;-83
2021/06/24 02:51:07;;;;;;;21.30;10.65;;;;;;;13.77;100.00;102079.81;5227395;28;20021;-83
2021/06/24 02:53:37;;;;;;;19.45;11.15;;;;;;;13.78;100.00;102076.13;5239621;28;20021;-83
2021/06/24 02:56:08;;;;;;;17.77;10.02;;;;;;;13.86;100.00;102071.63;5214986;28;20162;-84
2021/06/24 02:58:39;;;;;;;19.83;10.18;;;;;;;13.73;100.00;102065.78;5247570;28;20029;-83
2021/06/24 03:01:10;;;;;;;19.73;10.45;;;;;;;13.70;100.00;102066.09;5237878;28;20029;-83
2021/06/24 03:03:41;;;;;;;21.02;10.07;;;;;;;13.72;100.00;102059.56;5227168;28;20150;-83
2021/06/24 03:06:12;;;;;;;28.35;11.02;;;;;;;13.82;100.00;102058.63;5237182;28;20025;-83
2021/06/24 03:08:42;;;;;;;22.23;10.85;;;;;;;13.81;100.00;102060.47;5235093;28;20036;-83
2021/06/24 03:11:14;;;;;;;21.38;10.30;;;;;;;13.87;100.00;102061.69;5235337;28;20021;-83
2021/06/24 03:13:47;;;;;;;20.10;10.63;;;;;;;13.83;100.00;102052.22;5240022;28;20025;-83
2021/06/24 03:16:18;;;;;;;15.25;10.02;;;;;;;13.84;100.00;102067.38;5226287;28;20490;-83
2021/06/24 03:18:49;;;;;;;22.67;10.73;;;;;;;13.79;100.00;102062.47;5233526;28;20029;-83
2021/06/24 03:21:20;;;;;;;20.60;10.95;;;;;;;13.77;100.00;102061.78;5231832;28;20033;-83
2021/06/24 03:23:51;;;;;;;16.13;10.85;;;;;;;13.70;100.00;102055.31;5226041;28;20025;-83
2021/06/24 03:26:22;;;;;;;24.05;10.88;;;;;;;13.73;100.00;102052.31;5226363;28;20028;-83
2021/06/24 03:28:52;;;;;;;17.40;9.82;;;;;;;13.75;100.00;102055.69;5226102;28;20488;-83
2021/06/24 03:31:23;;;;;;;17.67;9.95;;;;;;;13.72;100.00;102064.94;5225372;28;20028;-82
2021/06/24 03:33:53;;;;;;;18.35;10.50;;;;;;;13.77;100.00;102063.63;5226388;28;20033;-83
2021/06/24 03:36:24;;;;;;;17.23;9.07;;;;;;;13.79;100.00;102058.91;5225787;28;20032;-83
2021/06/24 03:38:54;;;;;;;20.35;10.88;;;;;;;13.74;100.00;102057.53;5231271;28;20025;-82
2021/06/24 03:41:26;;;;;;;18.63;10.38;;;;;;;13.72;100.00;102061.41;5238764;28;20036;-82
2021/06/24 03:43:57;;;;;;;17.13;9.75;;;;;;;13.64;100.00;102064.88;5225502;28;20029;-83
2021/06/24 03:46:28;;;;;;;17.50;10.30;;;;;;;13.66;100.00;102057.50;5225561;28;20368;-82
2021/06/24 03:48:59;;;;;;;22.00;10.60;;;;;;;13.57;100.00;102057.59;5238623;28;20032;-82
2021/06/24 03:51:29;;;;;;;17.83;9.93;;;;;;;13.61;100.00;102056.28;5234965;28;20113;-83
2021/06/24 03:54:00;;;;;;;18.52;10.43;;;;;;;13.62;100.00;102057.97;5229256;28;20159;-82
2021/06/24 03:56:30;;;;;;;17.08;10.55;;;;;;;13.76;100.00;102053.88;5225417;28;20048;-83
2021/06/24 03:59:01;;;;;;;21.70;10.07;;;;;;;13.65;100.00;102060.34;5243204;28;20040;-82
2021/06/24 04:01:31;;;;;;;18.83;9.80;;;;;;;13.64;100.00;102061.34;5234017;28;20027;-83
2021/06/24 04:04:02;;;;;;;19.55;9.65;;;;;;;13.66;100.00;102064.75;5225149;28;20036;-82
2021/06/24 04:06:32;;;;;;;15.32;9.43;;;;;;;13.70;100.00;102069.66;5225253;28;20021;-82
2021/06/24 04:09:05;;;;;;;18.15;10.27;;;;;;;13.72;100.00;102059.56;5225685;28;20028;-82
2021/06/24 04:11:36;;;;;;;17.90;10.25;;;;;;;13.70;100.00;102072.38;5239792;28;20024;-83
2021/06/24 04:14:07;;;;;;;24.13;10.70;;;;;;;13.76;100.00;102059.25;5237351;28;20023;-83
2021/06/24 04:16:37;;;;;;;17.38;10.05;;;;;;;13.81;100.00;102067.72;5229059;28;20032;-83
2021/06/24 04:19:10;;;;;;;22.27;10.88;;;;;;;13.85;100.00;102066.38;5236221;28;20039;-82
2021/06/24 04:21:40;;;;;;;24.52;9.93;;;;;;;13.81;100.00;102068.56;5226347;28;20472;-83
2021/06/24 04:24:11;;;;;;;16.10;9.70;;;;;;;13.80;100.00;102058.75;5237642;28;20035;-83
2021/06/24 04:26:42;;;;;;;21.23;9.93;;;;;;;13.79;100.00;102062.47;5233503;28;20032;-82
2021/06/24 04:29:12;;;;;;;17.50;10.90;;;;;;;13.76;100.00;102052.00;5233720;28;20099;-82
2021/06/24 04:31:43;;;;;;;19.90;9.88;;;;;;;13.80;100.00;102052.53;5232130;28;20036;-83
2021/06/24 04:34:13;;;;;;;15.98;9.75;;;;;;;13.82;100.00;102050.53;5232699;28;20021;-83
2021/06/24 04:36:44;;;;;;;19.08;9.95;;;;;;;13.85;100.00;102056.44;5237829;28;20021;-82
2021/06/24 04:39:14;;;;;;;26.58;10.80;;;;;;;13.89;100.00;102055.13;5227968;28;20111;-83
2021/06/24 04:41:44;;;;;;;17.45;9.55;;;;;;;13.95;100.00;102054.47;5236643;28;20021;-82
2021/06/24 04:44:15;;;;;;;19.23;9.70;;;;;;;13.98;100.00;102059.56;5241897;28;20345;-83
2021/06/24 04:46:47;;;;;;;23.45;10.13;;;;;;;14.02;100.00;102065.50;5246554;28;20052;-83
2021/06/24 04:49:17;;;;;;;18.58;9.93;;;;;;;13.98;100.00;102072.22;5240944;28;20040;-82
2021/06/24 04:51:48;;;;;;;16.80;8.98;;;;;;;14.02;100.00;102062.78;5225706;28;20503;-82
2021/06/24 04:54:18;;;;;;;22.10;9.95;;;;;;;13.96;100.00;102066.13;5225690;28;20029;-83
2021/06/24 04:56:49;;;;;;;17.45;9.45;;;;;;;14.08;100.00;102074.81;5225034;28;20054;-83
2021/06/24 04:59:19;;;;;;;25.48;11.48;;;;;;;13.96;100.00;102072.38;5225533;28;20047;-83
2021/06/24 05:01:50;;;;;;;17.67;10.57;;;;;;;13.98;100.00;102075.75;5226688;28;20400;-83
2021/06/24 05:04:20;;;;;;;22.52;10.88;;;;;;;13.97;100.00;102071.38;5237659;28;20029;-83
2021/06/24 05:06:53;;;;;;;16.70;9.68;;;;;;;13.97;100.00;102067.81;5226202;28;20027;-83
2021/06/24 05:09:26;;;;;;;16.15;10.57;;;;;;;14.02;100.00;102068.19;5245598;28;20078;-83
2021/06/24 05:11:57;;;;;;;26.73;10.73;;;;;;;14.12;100.00;102066.22;5246062;28;20028;-83
2021/06/24 05:14:27;;;;;;;18.58;10.27;;;;;;;14.19;100.00;102069.97;5234807;28;20040;-83
2021/06/24 05:16:58;;;;;;;21.23;10.88;;;;;;;14.15;100.00;102071.28;5238586;28;20420;-83
2021/06/24 05:19:28;;;;;;;18.13;10.10;;;;;;;14.20;100.00;102071.66;5225555;28;20024;-82
2021/06/24 05:21:59;;;;;;;17.65;10.40;;;;;;;14.28;100.00;102073.56;5229065;28;20071;-82
2021/06/24 05:24:29;;;;;;;19.13;9.98;;;;;;;14.28;100.00;102070.03;5229287;28;20023;-82
2021/06/24 05:27:00;;;;;;;18.50;10.10;;;;;;;14.51;100.00;102071.19;5242114;28;20498;-83
2021/06/24 05:29:30;;;;;;;22.50;10.65;;;;;;;14.53;100.00;102065.63;5241937;28;20390;-83
2021/06/24 05:32:01;;;;;;;15.40;9.43;;;;;;;14.63;100.00;102071.72;5228744;28;20458;-83
2021/06/24 05:34:32;;;;;;;19.02;9.95;;;;;;;14.76;100.00;102062.16;5231717;28;20040;-82
2021/06/24 05:37:03;;;;;;;18.58;9.40;;;;;;;14.72;100.00;102058.09;5246461;28;20054;-83
2021/06/24 05:39:34;;;;;;;26.52;9.85;;;;;;;14.76;100.00;102061.31;5228566;28;20021;-83
2021/06/24 05:42:05;;;;;;;20.20;9.68;;;;;;;14.87;100.00;102052.06;5228769;28;20395;-83
2021/06/24 05:44:35;;;;;;;21.17;9.18;;;;;;;14.95;100.00;102052.06;5241584;28;20030;-82
2021/06/24 05:47:06;;;;;;;18.23;9.82;;;;;;;14.96;100.00;102045.63;5228813;28;20024;-83
2021/06/24 05:49:36;;;;;;;18.85;9.50;;;;;;;15.26;100.00;102039.63;5236972;28;20032;-83
2021/06/24 05:52:07;;;;;;;16.30;8.90;;;;;;;15.69;100.00;102042.16;5236400;28;20044;-83
2021/06/24 05:54:37;;;;;;;22.77;8.93;;;;;;;15.88;100.00;102036.41;5236493;28;20055;-83
2021/06/24 05:57:08;;;;;;;21.20;8.55;;;;;;;16.15;100.00;102037.84;5237941;28;20054;-83
2021/06/24 05:59:38;;;;;;;18.00;8.40;;;;;;;16.71;100.00;102026.91;5239958;28;20657;-83
2021/06/24 06:02:09;;;;;;;16.30;8.52;;;;;;;16.88;100.00;102022.31;5235109;28;20103;-83
2021/06/24 06:04:39;;;;;;;17.48;8.60;;;;;;;16.81;100.00;102025.69;5237627;28;20120;-83
2021/06/24 06:07:10;;;;;;;15.63;8.10;;;;;;;16.82;100.00;102027.41;5247967;28;20028;-84
2021/06/24 06:09:40;;;;;;;15.63;8.38;;;;;;;16.87;100.00;102023.31;5236565;28;20448;-83
2021/06/24 06:12:10;;;;;;;14.63;8.82;;;;;;;16.85;100.00;102028.91;5237915;28;20047;-83
2021/06/24 06:14:41;;;;;;;17.20;8.10;;;;;;;16.76;100.00;102029.97;5237645;28;20017;-83
2021/06/24 06:17:12;;;;;;;19.73;8.75;;;;;;;16.65;100.00;102033.06;5237418;28;20025;-83
2021/06/24 06:19:44;;;;;;;20.48;9.68;;;;;;;16.52;100.00;102025.53;5248838;28;20028;-83
2021/06/24 06:22:14;;;;;;;21.83;10.60;;;;;;;16.54;100.00;102034.31;5238846;28;20060;-83
2021/06/24 06:24:44;;;;;;;15.48;9.35;;;;;;;16.34;100.00;102030.34;5231041;28;20124;-83
2021/06/24 06:27:15;;;;;;;17.58;8.10;;;;;;;16.54;100.00;102035.16;5237780;28;20025;-82
2021/06/24 06:29:45;;;;;;;13.48;9.40;;;;;;;16.63;100.00;102027.00;5230559;28;20028;-82
2021/06/24 06:32:17;;;;;;;30.17;9.13;;;;;;;16.67;100.00;102033.75;5236550;28;20029;-83
2021/06/24 06:34:47;;;;;;;16.58;8.82;;;;;;;16.58;100.00;102025.66;5226808;28;20025;-83
2021/06/24 06:37:18;;;;;;;16.35;9.02;;;;;;;16.64;100.00;102029.50;5228083;28;20365;-83
2021/06/24 06:39:48;;;;;;;17.30;8.90;;;;;;;16.58;100.00;102024.81;5232927;28;20028;-82
2021/06/24 06:42:19;;;;;;;18.75;9.07;;;;;;;16.64;100.00;102017.84;5235143;28;20017;-82
2021/06/24 06:44:50;;;;;;;18.75;9.55;;;;;;;16.46;100.00;102015.38;5244395;28;20447;-82
2021/06/24 06:47:20;;;;;;;22.08;9.43;;;;;;;16.61;100.00;102010.03;5244303;28;20052;-82
2021/06/24 06:49:51;;;;;;;15.05;9.00;;;;;;;16.95;100.00;102013.25;5229406;28;20162;-82
2021/06/24 06:52:21;;;;;;;13.50;8.63;;;;;;;17.00;100.00;102007.28;5233467;28;20025;-83
2021/06/24 06:54:51;;;;;;;16.17;9.05;;;;;;;16.93;100.00;102014.47;5252426;28;20387;-82
2021/06/24 06:57:22;;;;;;;13.30;9.32;;;;;;;16.97;100.00;102013.09;5237971;28;20028;-82
2021/06/24 06:59:52;;;;;;;15.93;9.10;;;;;;;16.96;100.00;102019.50;5237759;28;20104;-82
2021/06/24 07:02:23;;;;;;;18.42;9.50;;;;;;;17.07;100.00;102017.25;5235519;28;20024;-82
2021/06/24 07:04:53;;;;;;;15.50;8.65;;;;;;;17.27;100.00;102014.03;5250579;28;20024;-82
2021/06/24 07:07:24;;;;;;;18.83;9.05;;;;;;;17.38;100.00;102012.78;5235648;28;20044;-82
2021/06/24 07:09:54;;;;;;;17.08;9.75;;;;;;;17.15;100.00;102029.06;5235003;28;20024;-82
2021/06/24 07:12:25;;;;;;;19.40;9.32;;;;;;;17.05;100.00;102019.28;5229424;28;20436;-82
2021/06/24 07:14:55;;;;;;;24.83;9.10;;;;;;;17.15;100.00;102015.50;5244343;28;20489;-82
2021/06/24 07:17:26;;;;;;;16.40;9.95;;;;;;;17.17;100.00;102019.72;5229261;28;20059;-82
2021/06/24 07:19:56;;;;;;;16.98;8.77;;;;;;;17.65;100.00;102016.75;5243525;28;20025;-82
2021/06/24 07:22:27;;;;;;;25.10;9.80;;;;;;;17.69;100.00;102028.94;5228952;28;20121;-82
2021/06/24 07:24:57;;;;;;;16.50;8.70;;;;;;;17.87;100.00;102029.44;5233855;28;20025;-83
2021/06/24 07:27:28;;;;;;;23.27;9.52;;;;;;;17.90;100.00;102031.78;5246163;28;20028;-82
2021/06/24 07:29:58;;;;;;;18.02;9.10;;;;;;;17.78;100.00;102036.84;5237399;28;20020;-82
2021/06/24 07:32:29;;;;;;;18.30;8.63;;;;;;;17.72;100.00;102026.72;5252800;28;20042;-83
2021/06/24 07:35:00;;;;;;;22.10;9.38;;;;;;;17.83;100.00;102029.00;5231660;28;20017;-81
2021/06/24 07:37:30;;;;;;;16.05;9.43;;;;;;;17.73;100.00;102027.56;5232348;28;20104;-82
2021/06/24 07:40:01;;;;;;;15.07;9.20;;;;;;;17.65;100.00;102033.88;5232521;28;20367;-82
2021/06/24 07:42:31;;;;;;;15.90;8.32;;;;;;;17.67;100.00;102025.53;5240358;28;20039;-82
2021/06/24 07:45:04;;;;;;;15.73;8.98;;;;;;;17.67;100.00;102022.81;5217016;28;20033;-82
2021/06/24 07:47:34;;;;;;;16.92;7.75;;;;;;;17.85;100.00;102035.06;5246631;28;20489;-82
2021/06/24 07:50:05;;;;;;;13.32;8.27;;;;;;;17.64;100.00;102034.91;5236009;28;20013;-82
2021/06/24 07:52:36;;;;;;;15.25;8.68;;;;;;;17.84;100.00;102024.41;5232459;28;20107;-82
2021/06/24 07:55:07;;;;;;;13.77;9.25;;;;;;;18.04;100.00;102030.97;5234499;28;20064;-82
2021/06/24 07:57:38;;;;;;;18.05;7.95;;;;;;;18.02;100.00;102026.75;5238077;28;20503;-82
2021/06/24 08:00:10;;;;;;;12.90;8.63;;;;;;;18.18;100.00;102033.88;5238275;28;20452;-82
2021/06/24 08:02:41;;;;;;;14.02;8.10;;;;;;;18.11;100.00;102028.34;5224997;28;20432;-82
2021/06/24 08:05:12;;;;;;;13.48;7.57;;;;;;;18.43;100.00;102020.84;5224701;28;20081;-83
2021/06/24 08:07:45;;;;;;;15.23;8.20;;;;;;;18.52;100.00;102025.94;5225874;28;20040;-84
2021/06/24 08:10:19;;;;;;;16.42;8.10;;;;;;;18.56;100.00;102029.13;5227894;28;20476;-84
2021/06/24 08:12:49;;;;;;;23.85;8.55;;;;;;;18.52;100.00;102033.25;5234005;28;20032;-83
2021/06/24 08:15:21;;;;;;;15.85;7.90;;;;;;;18.51;100.00;102029.72;5237474;28;20044;-84
2021/06/24 08:17:52;;;;;;;14.13;7.82;;;;;;;18.57;100.00;102028.94;5237285;28;20488;-83
2021/06/24 08:20:22;;;;;;;14.63;7.97;;;;;;;18.66;100.00;102032.41;5231442;28;20134;-84
2021/06/24 08:22:55;;;;;;;20.35;8.40;;;;;;;18.61;100.00;102026.69;5230895;28;20021;-83
2021/06/24 08:25:26;;;;;;;18.65;8.10;;;;;;;18.47;100.00;102033.81;5232105;28;20349;-83
2021/06/24 08:27:56;;;;;;;13.20;8.00;;;;;;;18.73;100.00;102027.94;5231441;28;20032;-85
2021/06/24 08:30:27;;;;;;;15.23;8.57;;;;;;;18.73;100.00;102024.38;5234986;28;20017;-83
2021/06/24 08:32:57;;;;;;;18.50;7.82;;;;;;;18.60;100.00;102027.72;5237509;28;20025;-84
2021/06/24 08:35:28;;;;;;;13.05;7.07;;;;;;;18.48;100.00;102024.66;5223791;28;20013;-83
2021/06/24 08:37:59;;;;;;;18.92;8.27;;;;;;;18.31;100.00;102034.03;5237199;28;20032;-84
2021/06/24 08:40:30;;;;;;;16.40;7.70;;;;;;;18.35;100.00;102041.63;5236709;28;20609;-83
2021/06/24 08:43:01;;;;;;;15.05;7.97;;;;;;;18.10;100.00;102037.53;5225010;28;20161;-84
2021/06/24 08:45:31;;;;;;;12.50;7.53;;;;;;;18.33;100.00;102030.13;5223793;28;20108;-83
2021/06/24 08:48:02;;;;;;;15.20;7.65;;;;;;;18.50;100.00;102033.47;5236636;28;20598;-83
2021/06/24 08:50:32;;;;;;;17.55;7.65;;;;;;;18.60;100.00;102035.88;5237365;28;20487;-83
2021/06/24 08:53:03;;;;;;;20.90;8.40;;;;;;;18.34;100.00;102045.38;5224593;28;20021;-84
2021/06/24 08:55:40;;;;;;;19.35;8.77;;;;;;;18.24;100.00;102033.13;5241807;28;20112;-83
2021/06/24 08:58:10;;;;;;;21.80;8.65;;;;;;;18.59;100.00;102037.75;5239764;28;20013;-83
2021/06/24 09:00:42;;;;;;;16.95;7.80;;;;;;;18.70;100.00;102039.19;5243462;28;20032;-83
2021/06/24 09:03:20;;;;;;;30.85;9.18;;;;;;;18.82;100.00;102045.78;5228604;28;20025;-83
2021/06/24 09:05:52;;;;;;;15.35;7.30;;;;;;;18.88;100.00;102036.88;5227980;28;20025;-84
2021/06/24 09:08:26;;;;;;;11.88;7.82;;;;;;;18.87;100.00;102037.06;5239945;28;20021;-84
2021/06/24 09:11:19;;;;;;;15.48;8.15;;;;;;;18.83;100.00;102043.94;5236170;28;20035;-83
2021/06/24 09:14:11;;;;;;;17.30;7.75;;;;;;;18.77;100.00;102050.94;5235022;28;20043;-83
2021/06/24 09:16:44;;;;;;;14.70;7.70;;;;;;;18.60;100.00;102049.47;5234311;28;20036;-83
2021/06/24 09:19:20;;;;;;;13.05;7.20;;;;;;;18.77;100.00;102055.56;5237477;28;20020;-83
2021/06/24 09:22:07;;;;;;;19.23;7.90;;;;;;;18.96;100.00;102051.38;5225978;28;20052;-83
2021/06/24 09:24:41;;;;;;;14.90;7.72;;;;;;;18.95;100.00;102050.53;5230605;28;20044;-83
2021/06/24 09:27:18;;;;;;;17.75;6.97;;;;;;;18.92;100.00;102052.78;5241299;28;20104;-82
2021/06/24 09:29:49;;;;;;;18.65;7.50;;;;;;;18.94;100.00;102048.03;5241561;28;20506;-83
2021/06/24 09:32:40;;;;;;;15.80;7.03;;;;;;;18.86;100.00;102054.41;5238800;28;20491;-84
2021/06/24 09:35:22;;;;;;;17.88;6.90;;;;;;;18.67;100.00;102050.38;5226903;28;20100;-84
2021/06/24 09:38:04;;;;;;;22.33;7.95;;;;;;;18.51;100.00;102056.88;5239772;28;20025;-83
2021/06/24 09:40:49;;;;;;;11.13;7.10;;;;;;;18.67;100.00;102053.09;5239052;28;20052;-84
2021/06/24 09:43:22;;;;;;;15.88;7.13;;;;;;;18.84;100.00;102054.63;5209397;28;20120;-84
2021/06/24 09:46:19;;;;;;;10.80;6.97;;;;;;;19.02;100.00;102047.88;5226931;28;20029;-84
2021/06/24 09:48:52;;;;;;;16.95;7.22;;;;;;;19.12;100.00;102046.53;5222957;28;20024;-83
2021/06/24 09:51:24;;;;;;;15.35;6.25;;;;;;;19.09;100.00;102044.22;5225310;28;20027;-84
2021/06/24 09:54:13;;;;;;;14.15;7.47;;;;;;;19.13;100.00;102048.25;5226365;28;20116;-83
2021/06/24 09:56:46;;;;;;;10.15;6.45;;;;;;;19.02;100.00;102056.03;5217274;28;20099;-86
2021/06/24 09:59:18;;;;;;;14.48;6.90;;;;;;;19.09;100.00;102046.94;5246424;28;20471;-83
2021/06/24 10:01:49;;;;;;;13.25;7.35;;;;;;;19.07;100.00;102050.88;5239634;28;20513;-83
2021/06/24 10:04:27;;;;;;;19.02;7.90;;;;;;;18.99;100.00;102059.16;5213466;28;20028;-83
2021/06/24 10:07:00;;;;;;;21.50;8.25;;;;;;;19.09;100.00;102060.53;5229759;28;20107;-84
2021/06/24 10:09:32;;;;;;;10.85;7.25;;;;;;;19.20;100.00;102051.00;5235796;28;20373;-84
2021/06/24 10:12:02;;;;;;;15.55;7.38;;;;;;;19.19;100.00;102054.78;5240568;28;20102;-84
2021/06/24 10:14:33;;;;;;;15.25;8.48;;;;;;;19.23;100.00;102052.50;5239379;28;20040;-83
2021/06/24 10:17:05;;;;;;;15.18;8.02;;;;;;;19.17;100.00;102050.56;5234308;28;20021;-84
2021/06/24 10:19:38;;;;;;;17.67;8.35;;;;;;;19.05;100.00;102056.50;5233321;28;20102;-84
2021/06/24 10:22:12;;;;;;;13.63;8.50;;;;;;;19.37;100.00;102052.41;5240599;28;20025;-82
2021/06/24 10:24:55;;;;;;;12.98;7.82;;;;;;;19.62;100.00;102054.78;5241768;28;20090;-83
2021/06/24 10:27:35;;;;;;;15.02;8.88;;;;;;;19.73;100.00;102048.81;5239552;28;20379;-82
2021/06/24 10:30:24;;;;;;;15.40;7.60;;;;;;;19.78;100.00;102043.59;5240557;28;20039;-82
2021/06/24 10:32:58;;;;;;;23.08;8.48;;;;;;;20.00;100.00;102046.25;5241180;28;20033;-83
2021/06/24 10:35:34;;;;;;;13.00;8.57;;;;;;;20.21;100.00;102048.06;5219015;28;20089;-83
2021/06/24 10:38:07;;;;;;;12.75;8.30;;;;;;;20.37;100.00;102055.91;5240854;28;20024;-83
2021/06/24 10:40:40;;;;;;;16.45;8.00;;;;;;;20.59;100.00;102051.22;5238203;28;20029;-83
2021/06/24 10:43:15;;;;;;;18.23;9.32;;;;;;;20.99;100.00;102046.75;5226938;28;20373;-83
2021/06/24 10:45:46;;;;;;;11.13;7.18;;;;;;;20.79;100.00;102048.59;5240351;28;20025;-83
2021/06/24 10:48:30;;;;;;;14.35;7.47;;;;;;;20.72;100.00;102053.16;5219119;28;20165;-83
2021/06/24 10:51:06;;;;;;;14.27;7.90;;;;;;;20.62;100.00;102050.81;5226279;28;20107;-82
2021/06/24 10:53:41;;;;;;;12.82;8.20;;;;;;;20.55;100.00;102058.97;5225765;28;20032;-82
2021/06/24 10:56:24;;;;;;;;;;;;;;;20.42;100.00;102051.53;5226226;28;20016;-82
2021/06/24 10:58:56;;;;;;;18.23;8.60;;;;;;;20.46;100.00;102054.69;5241719;28;20372;-83
2021/06/24 11:01:45;;;;;;;14.82;8.70;;;;;;;20.27;100.00;102052.69;5234433;28;20029;-83
2021/06/24 11:04:26;;;;;;;16.13;7.38;;;;;;;20.73;100.00;102044.75;5225254;28;20361;-83
2021/06/24 11:06:59;;;;;;;12.30;8.63;;;;;;;20.82;100.00;102054.44;5240650;28;20033;-83
2021/06/24 11:09:31;;;;;;;12.10;8.02;;;;;;;20.76;100.00;102047.09;5234545;28;20455;-84
2021/06/24 11:12:01;;;;;;;13.02;7.78;;;;;;;20.80;100.00;102052.97;5238676;28;20025;-84
2021/06/24 11:14:55;;;;;;;18.85;9.70;;;;;;;21.01;100.00;102049.25;5236860;28;20024;-83
2021/06/24 11:17:52;;;;;;;19.35;9.80;;;;;;;20.91;100.00;102049.66;5228220;28;20029;-84
2021/06/24 11:20:24;;;;;;;18.30;8.30;;;;;;;20.70;100.00;102047.91;5227898;28;20046;-84
2021/06/24 11:22:55;;;;;;;18.27;8.07;;;;;;;20.85;100.00;102051.31;5232187;28;20487;-83
2021/06/24 11:26:20;;;;;;;10.68;7.13;;;;;;;21.11;93.10;102045.09;5236894;28;20029;-84
2021/06/24 11:29:18;;;;;;;10.82;6.72;;;;;;;21.09;100.00;102055.38;5140976;28;20542;-83
2021/06/24 11:32:04;;;;;;;11.88;6.70;;;;;;;21.23;93.58;102049.91;5245225;28;20024;-83